sensor_id;sensor_type;location;lat;lon;timestamp;temperature;humidity
21189;DHT22;39071;52.420;20.896;2022-09-03T00:00:04;9.30;1.00
21189;DHT22;39071;52.420;20.896;2022-09-03T00:02:37;9.30;1.00
21189;DHT22;39071;52.420;20.896;2022-09-03T00:10:58;9.30;32.40
21189;DHT22;39071;52.420;20.896;2022-09-03T00:13:30;9.30;1.00
21189;DHT22;39071;52.420;20.896;2022-09-03T00:15:58;9.40;1.00
21189;DHT22;39071;52.420;20.896;2022-09-03T00:18:27;9.40;1.00
21189;DHT22;39071;52.420;20.896;2022-09-03T00:21:01;9.30;1.00
21189;DHT22;39071;52.420;20.896;2022-09-03T00:23:37;9.40;1.00
21189;DHT22;39071;52.420;20.896;2022-09-03T00:28:58;9.40;1.00
21189;DHT22;39071;52.420;20.896;2022-09-03T00:31:37;9.30;1.00
21189;DHT22;39071;52.420;20.896;2022-09-03T00:34:27;9.40;1.00
21189;DHT22;39071;52.420;20.896;2022-09-03T00:36:55;9.30;1.00
21189;DHT22;39071;52.420;20.896;2022-09-03T00:39:23;9.30;1.00
21189;DHT22;39071;52.420;20.896;2022-09-03T00:42:12;9.30;1.00
21189;DHT22;39071;52.420;20.896;2022-09-03T00:44:47;9.20;1.00
21189;DHT22;39071;52.420;20.896;2022-09-03T00:50:30;9.10;1.00
21189;DHT22;39071;52.420;20.896;2022-09-03T00:56:07;9.00;1.00
21189;DHT22;39071;52.420;20.896;2022-09-03T01:07:29;8.90;1.00
21189;DHT22;39071;52.420;20.896;2022-09-03T01:18:25;8.80;1.00
21189;DHT22;39071;52.420;20.896;2022-09-03T01:29:28;8.80;1.00
21189;DHT22;39071;52.420;20.896;2022-09-03T01:43:05;8.60;1.00
21189;DHT22;39071;52.420;20.896;2022-09-03T01:45:48;8.50;1.00
21189;DHT22;39071;52.420;20.896;2022-09-03T01:50:56;8.40;1.00
21189;DHT22;39071;52.420;20.896;2022-09-03T02:02:29;8.40;99.90
21189;DHT22;39071;52.420;20.896;2022-09-03T02:04:59;8.30;1.00
21189;DHT22;39071;52.420;20.896;2022-09-03T02:07:30;8.30;40.50
21189;DHT22;39071;52.420;20.896;2022-09-03T02:09:59;8.30;6.70
21189;DHT22;39071;52.420;20.896;2022-09-03T02:12:25;8.30;1.00
21189;DHT22;39071;52.420;20.896;2022-09-03T02:14:54;8.20;1.00
21189;DHT22;39071;52.420;20.896;2022-09-03T02:17:20;8.20;53.40
21189;DHT22;39071;52.420;20.896;2022-09-03T02:19:46;8.20;26.40
21189;DHT22;39071;52.420;20.896;2022-09-03T02:22:12;8.20;1.10
21189;DHT22;39071;52.420;20.896;2022-09-03T02:24:38;8.20;35.50
21189;DHT22;39071;52.420;20.896;2022-09-03T02:27:04;8.10;99.90
21189;DHT22;39071;52.420;20.896;2022-09-03T02:29:30;8.10;34.10
21189;DHT22;39071;52.420;20.896;2022-09-03T02:31:57;8.20;1.00
21189;DHT22;39071;52.420;20.896;2022-09-03T02:34:23;8.10;1.00
21189;DHT22;39071;52.420;20.896;2022-09-03T02:36:48;8.00;1.00
21189;DHT22;39071;52.420;20.896;2022-09-03T02:39:15;8.00;1.00
21189;DHT22;39071;52.420;20.896;2022-09-03T02:41:41;8.00;1.00
21189;DHT22;39071;52.420;20.896;2022-09-03T02:44:34;7.90;1.00
21189;DHT22;39071;52.420;20.896;2022-09-03T02:47:04;7.90;45.90
21189;DHT22;39071;52.420;20.896;2022-09-03T02:49:31;7.90;30.40
21189;DHT22;39071;52.420;20.896;2022-09-03T02:52:02;7.90;90.50
21189;DHT22;39071;52.420;20.896;2022-09-03T02:54:34;7.90;99.90
21189;DHT22;39071;52.420;20.896;2022-09-03T02:57:07;7.90;95.60
21189;DHT22;39071;52.420;20.896;2022-09-03T02:59:34;7.90;99.90
21189;DHT22;39071;52.420;20.896;2022-09-03T03:02:00;8.00;65.80
21189;DHT22;39071;52.420;20.896;2022-09-03T03:04:25;8.00;19.20
21189;DHT22;39071;52.420;20.896;2022-09-03T03:06:51;8.00;10.00
21189;DHT22;39071;52.420;20.896;2022-09-03T03:09:17;8.00;1.00
21189;DHT22;39071;52.420;20.896;2022-09-03T03:11:43;7.90;1.00
21189;DHT22;39071;52.420;20.896;2022-09-03T03:14:09;8.00;1.00
21189;DHT22;39071;52.420;20.896;2022-09-03T03:16:35;7.90;1.00
21189;DHT22;39071;52.420;20.896;2022-09-03T03:19:01;7.90;1.00
21189;DHT22;39071;52.420;20.896;2022-09-03T03:21:27;7.90;1.00
21189;DHT22;39071;52.420;20.896;2022-09-03T03:23:53;7.80;1.00
21189;DHT22;39071;52.420;20.896;2022-09-03T03:26:20;7.70;1.00
21189;DHT22;39071;52.420;20.896;2022-09-03T03:28:49;7.70;1.00
21189;DHT22;39071;52.420;20.896;2022-09-03T03:31:17;7.70;1.00
21189;DHT22;39071;52.420;20.896;2022-09-03T03:33:43;7.70;22.00
21189;DHT22;39071;52.420;20.896;2022-09-03T03:36:11;7.70;96.40
21189;DHT22;39071;52.420;20.896;2022-09-03T03:38:38;7.70;37.10
21189;DHT22;39071;52.420;20.896;2022-09-03T03:41:11;7.70;30.70
21189;DHT22;39071;52.420;20.896;2022-09-03T03:43:38;7.70;1.00
21189;DHT22;39071;52.420;20.896;2022-09-03T03:46:04;7.80;1.00
21189;DHT22;39071;52.420;20.896;2022-09-03T03:48:30;7.80;1.00
21189;DHT22;39071;52.420;20.896;2022-09-03T03:51:00;7.80;1.00
21189;DHT22;39071;52.420;20.896;2022-09-03T03:53:29;7.80;1.00
21189;DHT22;39071;52.420;20.896;2022-09-03T03:55:56;7.60;1.00
21189;DHT22;39071;52.420;20.896;2022-09-03T03:58:22;7.60;1.00
21189;DHT22;39071;52.420;20.896;2022-09-03T04:00:49;7.50;1.00
21189;DHT22;39071;52.420;20.896;2022-09-03T04:03:15;7.40;60.40
21189;DHT22;39071;52.420;20.896;2022-09-03T04:05:41;7.50;99.90
21189;DHT22;39071;52.420;20.896;2022-09-03T04:08:06;7.60;99.90
21189;DHT22;39071;52.420;20.896;2022-09-03T04:10:32;7.60;99.90
21189;DHT22;39071;52.420;20.896;2022-09-03T04:12:58;7.70;99.90
21189;DHT22;39071;52.420;20.896;2022-09-03T04:15:23;7.70;99.90
21189;DHT22;39071;52.420;20.896;2022-09-03T04:17:49;7.80;99.90
21189;DHT22;39071;52.420;20.896;2022-09-03T04:20:15;7.80;99.90
21189;DHT22;39071;52.420;20.896;2022-09-03T04:22:40;7.90;52.90
21189;DHT22;39071;52.420;20.896;2022-09-03T04:25:06;8.20;1.00
21189;DHT22;39071;52.420;20.896;2022-09-03T04:27:32;8.80;1.00
21189;DHT22;39071;52.420;20.896;2022-09-03T04:29:58;9.50;1.00
21189;DHT22;39071;52.420;20.896;2022-09-03T04:32:23;11.00;99.90
21189;DHT22;39071;52.420;20.896;2022-09-03T04:35:08;12.60;1.00
21189;DHT22;39071;52.420;20.896;2022-09-03T04:37:34;14.30;1.00
21189;DHT22;39071;52.420;20.896;2022-09-03T04:39:59;15.50;1.00
21189;DHT22;39071;52.420;20.896;2022-09-03T04:42:25;16.60;1.00
21189;DHT22;39071;52.420;20.896;2022-09-03T04:44:51;17.50;1.00
21189;DHT22;39071;52.420;20.896;2022-09-03T04:47:17;18.10;1.00
21189;DHT22;39071;52.420;20.896;2022-09-03T04:49:43;18.40;1.00
21189;DHT22;39071;52.420;20.896;2022-09-03T04:52:09;18.40;1.00
21189;DHT22;39071;52.420;20.896;2022-09-03T04:54:35;18.60;1.00
21189;DHT22;39071;52.420;20.896;2022-09-03T04:57:00;18.80;1.00
21189;DHT22;39071;52.420;20.896;2022-09-03T04:59:26;19.30;1.00
21189;DHT22;39071;52.420;20.896;2022-09-03T05:01:52;19.60;1.00
21189;DHT22;39071;52.420;20.896;2022-09-03T05:04:17;19.70;1.00
21189;DHT22;39071;52.420;20.896;2022-09-03T05:06:44;20.00;1.00
21189;DHT22;39071;52.420;20.896;2022-09-03T05:09:10;20.20;1.00
21189;DHT22;39071;52.420;20.896;2022-09-03T05:11:36;20.50;1.00
21189;DHT22;39071;52.420;20.896;2022-09-03T05:14:02;20.60;1.00
21189;DHT22;39071;52.420;20.896;2022-09-03T05:16:28;20.60;1.00
21189;DHT22;39071;52.420;20.896;2022-09-03T05:18:56;20.70;1.00
21189;DHT22;39071;52.420;20.896;2022-09-03T05:21:24;20.80;1.00
21189;DHT22;39071;52.420;20.896;2022-09-03T05:23:51;20.90;1.00
21189;DHT22;39071;52.420;20.896;2022-09-03T05:26:25;21.00;1.00
21189;DHT22;39071;52.420;20.896;2022-09-03T05:28:58;20.90;1.00
21189;DHT22;39071;52.420;20.896;2022-09-03T05:31:26;21.20;1.00
21189;DHT22;39071;52.420;20.896;2022-09-03T05:33:55;20.90;1.00
21189;DHT22;39071;52.420;20.896;2022-09-03T05:36:24;20.90;1.00
21189;DHT22;39071;52.420;20.896;2022-09-03T05:38:51;20.90;1.00
21189;DHT22;39071;52.420;20.896;2022-09-03T05:41:19;20.40;1.00
21189;DHT22;39071;52.420;20.896;2022-09-03T05:43:51;20.20;1.00
21189;DHT22;39071;52.420;20.896;2022-09-03T05:46:21;19.50;1.00
21189;DHT22;39071;52.420;20.896;2022-09-03T05:48:52;20.30;1.00
21189;DHT22;39071;52.420;20.896;2022-09-03T05:51:18;19.90;1.00
21189;DHT22;39071;52.420;20.896;2022-09-03T05:53:46;20.00;1.00
21189;DHT22;39071;52.420;20.896;2022-09-03T05:56:15;20.40;1.00
21189;DHT22;39071;52.420;20.896;2022-09-03T05:58:49;21.00;1.00
21189;DHT22;39071;52.420;20.896;2022-09-03T06:01:22;21.40;1.00
21189;DHT22;39071;52.420;20.896;2022-09-03T06:03:54;22.30;1.00
21189;DHT22;39071;52.420;20.896;2022-09-03T06:06:21;22.70;1.00
21189;DHT22;39071;52.420;20.896;2022-09-03T06:08:54;23.50;1.00
21189;DHT22;39071;52.420;20.896;2022-09-03T06:11:20;23.10;1.00
21189;DHT22;39071;52.420;20.896;2022-09-03T06:13:47;23.30;1.00
21189;DHT22;39071;52.420;20.896;2022-09-03T06:16:13;24.80;1.00
21189;DHT22;39071;52.420;20.896;2022-09-03T06:18:40;26.00;1.00
21189;DHT22;39071;52.420;20.896;2022-09-03T06:21:11;25.50;1.00
21189;DHT22;39071;52.420;20.896;2022-09-03T06:23:36;24.30;1.00
21189;DHT22;39071;52.420;20.896;2022-09-03T06:26:12;25.10;1.00
21189;DHT22;39071;52.420;20.896;2022-09-03T06:28:40;25.10;1.00
21189;DHT22;39071;52.420;20.896;2022-09-03T06:31:10;26.40;1.00
21189;DHT22;39071;52.420;20.896;2022-09-03T06:33:38;26.80;1.00
21189;DHT22;39071;52.420;20.896;2022-09-03T06:36:06;26.60;1.00
21189;DHT22;39071;52.420;20.896;2022-09-03T06:38:33;26.80;1.00
21189;DHT22;39071;52.420;20.896;2022-09-03T06:41:05;27.30;1.00
21189;DHT22;39071;52.420;20.896;2022-09-03T06:43:34;26.70;1.00
21189;DHT22;39071;52.420;20.896;2022-09-03T06:46:02;27.20;1.00
21189;DHT22;39071;52.420;20.896;2022-09-03T06:48:31;26.90;1.00
21189;DHT22;39071;52.420;20.896;2022-09-03T06:51:02;26.30;1.00
21189;DHT22;39071;52.420;20.896;2022-09-03T06:53:30;25.90;1.00
21189;DHT22;39071;52.420;20.896;2022-09-03T06:56:01;25.60;1.00
21189;DHT22;39071;52.420;20.896;2022-09-03T06:58:29;26.90;1.00
21189;DHT22;39071;52.420;20.896;2022-09-03T07:01:05;27.70;1.00
21189;DHT22;39071;52.420;20.896;2022-09-03T07:03:32;28.40;1.00
21189;DHT22;39071;52.420;20.896;2022-09-03T07:06:12;27.40;1.00
21189;DHT22;39071;52.420;20.896;2022-09-03T07:08:38;27.10;1.00
21189;DHT22;39071;52.420;20.896;2022-09-03T07:11:06;27.40;1.00
21189;DHT22;39071;52.420;20.896;2022-09-03T07:13:40;27.60;1.00
21189;DHT22;39071;52.420;20.896;2022-09-03T07:16:08;29.60;1.00
21189;DHT22;39071;52.420;20.896;2022-09-03T07:18:35;29.70;1.00
21189;DHT22;39071;52.420;20.896;2022-09-03T07:21:06;30.60;1.00
21189;DHT22;39071;52.420;20.896;2022-09-03T07:23:33;28.80;1.00
21189;DHT22;39071;52.420;20.896;2022-09-03T07:26:01;27.50;1.00
21189;DHT22;39071;52.420;20.896;2022-09-03T07:28:28;28.40;1.00
21189;DHT22;39071;52.420;20.896;2022-09-03T07:31:03;27.30;1.00
21189;DHT22;39071;52.420;20.896;2022-09-03T07:33:30;26.80;1.00
21189;DHT22;39071;52.420;20.896;2022-09-03T07:36:00;29.10;1.00
21189;DHT22;39071;52.420;20.896;2022-09-03T07:38:26;29.80;1.00
21189;DHT22;39071;52.420;20.896;2022-09-03T07:41:00;28.90;1.00
21189;DHT22;39071;52.420;20.896;2022-09-03T07:43:27;28.10;1.00
21189;DHT22;39071;52.420;20.896;2022-09-03T07:45:54;27.10;1.00
21189;DHT22;39071;52.420;20.896;2022-09-03T07:48:22;26.20;1.00
21189;DHT22;39071;52.420;20.896;2022-09-03T07:50:48;27.40;1.00
21189;DHT22;39071;52.420;20.896;2022-09-03T07:53:17;27.60;1.00
21189;DHT22;39071;52.420;20.896;2022-09-03T07:55:45;29.00;1.00
21189;DHT22;39071;52.420;20.896;2022-09-03T07:58:15;29.80;1.00
21189;DHT22;39071;52.420;20.896;2022-09-03T08:00:42;31.80;1.00
21189;DHT22;39071;52.420;20.896;2022-09-03T08:03:08;31.00;1.00
21189;DHT22;39071;52.420;20.896;2022-09-03T08:05:35;30.30;1.00
21189;DHT22;39071;52.420;20.896;2022-09-03T08:08:05;31.70;1.00
21189;DHT22;39071;52.420;20.896;2022-09-03T08:10:35;29.70;1.00
21189;DHT22;39071;52.420;20.896;2022-09-03T08:13:00;30.70;1.00
21189;DHT22;39071;52.420;20.896;2022-09-03T08:15:30;31.80;1.00
21189;DHT22;39071;52.420;20.896;2022-09-03T08:17:56;31.90;1.00
21189;DHT22;39071;52.420;20.896;2022-09-03T08:20:23;31.20;1.00
21189;DHT22;39071;52.420;20.896;2022-09-03T08:22:49;29.40;1.00
21189;DHT22;39071;52.420;20.896;2022-09-03T08:25:15;28.60;1.00
21189;DHT22;39071;52.420;20.896;2022-09-03T08:27:41;29.60;1.00
21189;DHT22;39071;52.420;20.896;2022-09-03T08:30:07;29.90;1.00
21189;DHT22;39071;52.420;20.896;2022-09-03T08:32:37;28.40;1.00
21189;DHT22;39071;52.420;20.896;2022-09-03T08:35:06;27.70;1.00
21189;DHT22;39071;52.420;20.896;2022-09-03T08:37:34;28.90;1.00
21189;DHT22;39071;52.420;20.896;2022-09-03T08:39:59;28.70;1.00
21189;DHT22;39071;52.420;20.896;2022-09-03T08:42:40;28.40;1.00
21189;DHT22;39071;52.420;20.896;2022-09-03T08:45:16;30.80;1.00
21189;DHT22;39071;52.420;20.896;2022-09-03T08:48:00;27.50;1.00
21189;DHT22;39071;52.420;20.896;2022-09-03T08:50:33;25.90;1.00
21189;DHT22;39071;52.420;20.896;2022-09-03T08:53:14;27.60;1.00
21189;DHT22;39071;52.420;20.896;2022-09-03T08:55:50;27.20;1.00
21189;DHT22;39071;52.420;20.896;2022-09-03T08:58:17;30.00;1.00
21189;DHT22;39071;52.420;20.896;2022-09-03T09:01:09;29.80;1.00
21189;DHT22;39071;52.420;20.896;2022-09-03T09:03:41;29.90;1.00
21189;DHT22;39071;52.420;20.896;2022-09-03T09:06:23;28.00;1.00
21189;DHT22;39071;52.420;20.896;2022-09-03T09:11:53;28.30;1.00
21189;DHT22;39071;52.420;20.896;2022-09-03T09:14:34;28.30;1.00
21189;DHT22;39071;52.420;20.896;2022-09-03T09:20:15;26.50;1.00
21189;DHT22;39071;52.420;20.896;2022-09-03T09:22:54;25.20;1.00
21189;DHT22;39071;52.420;20.896;2022-09-03T09:25:22;26.50;1.00
21189;DHT22;39071;52.420;20.896;2022-09-03T09:27:57;26.90;1.00
21189;DHT22;39071;52.420;20.896;2022-09-03T09:30:24;25.40;1.00
21189;DHT22;39071;52.420;20.896;2022-09-03T09:32:50;26.50;1.00
21189;DHT22;39071;52.420;20.896;2022-09-03T09:35:17;26.90;1.00
21189;DHT22;39071;52.420;20.896;2022-09-03T09:37:54;28.50;1.00
21189;DHT22;39071;52.420;20.896;2022-09-03T09:40:35;29.20;1.00
21189;DHT22;39071;52.420;20.896;2022-09-03T09:43:15;28.70;1.00
21189;DHT22;39071;52.420;20.896;2022-09-03T09:45:44;28.20;1.00
21189;DHT22;39071;52.420;20.896;2022-09-03T09:48:24;27.60;1.00
21189;DHT22;39071;52.420;20.896;2022-09-03T09:51:10;26.70;1.00
21189;DHT22;39071;52.420;20.896;2022-09-03T09:53:37;26.60;1.00
21189;DHT22;39071;52.420;20.896;2022-09-03T09:56:04;26.70;1.00
21189;DHT22;39071;52.420;20.896;2022-09-03T09:58:31;26.40;1.00
21189;DHT22;39071;52.420;20.896;2022-09-03T10:01:03;24.80;1.00
21189;DHT22;39071;52.420;20.896;2022-09-03T10:03:33;24.70;1.00
21189;DHT22;39071;52.420;20.896;2022-09-03T10:06:05;25.10;1.00
21189;DHT22;39071;52.420;20.896;2022-09-03T10:08:49;25.00;1.00
21189;DHT22;39071;52.420;20.896;2022-09-03T10:11:17;24.50;1.00
21189;DHT22;39071;52.420;20.896;2022-09-03T10:13:46;24.50;1.00
21189;DHT22;39071;52.420;20.896;2022-09-03T10:16:28;24.00;1.00
21189;DHT22;39071;52.420;20.896;2022-09-03T10:19:10;23.80;1.00
21189;DHT22;39071;52.420;20.896;2022-09-03T10:26:52;24.30;1.00
21189;DHT22;39071;52.420;20.896;2022-09-03T10:29:21;24.20;1.00
21189;DHT22;39071;52.420;20.896;2022-09-03T10:43:29;23.40;1.00
21189;DHT22;39071;52.420;20.896;2022-09-03T10:46:14;23.50;1.00
21189;DHT22;39071;52.420;20.896;2022-09-03T10:51:41;23.90;1.00
21189;DHT22;39071;52.420;20.896;2022-09-03T11:07:52;24.10;1.00
21189;DHT22;39071;52.420;20.896;2022-09-03T11:15:52;24.00;1.00
21189;DHT22;39071;52.420;20.896;2022-09-03T11:21:02;24.80;1.00
21189;DHT22;39071;52.420;20.896;2022-09-03T11:23:33;24.70;1.00
21189;DHT22;39071;52.420;20.896;2022-09-03T11:26:09;24.30;1.00
21189;DHT22;39071;52.420;20.896;2022-09-03T11:34:14;25.00;1.00
21189;DHT22;39071;52.420;20.896;2022-09-03T11:36:41;25.20;1.00
21189;DHT22;39071;52.420;20.896;2022-09-03T11:39:21;25.40;1.00
21189;DHT22;39071;52.420;20.896;2022-09-03T11:42:10;25.40;1.00
21189;DHT22;39071;52.420;20.896;2022-09-03T11:44:39;24.90;1.00
21189;DHT22;39071;52.420;20.896;2022-09-03T11:47:36;24.40;1.00
21189;DHT22;39071;52.420;20.896;2022-09-03T11:50:29;24.40;1.00
21189;DHT22;39071;52.420;20.896;2022-09-03T11:53:10;24.50;1.00
21189;DHT22;39071;52.420;20.896;2022-09-03T11:55:53;24.70;1.00
21189;DHT22;39071;52.420;20.896;2022-09-03T11:58:33;24.50;1.00
21189;DHT22;39071;52.420;20.896;2022-09-03T12:01:10;24.50;1.00
21189;DHT22;39071;52.420;20.896;2022-09-03T12:03:52;24.60;1.00
21189;DHT22;39071;52.420;20.896;2022-09-03T12:11:57;24.00;1.00
21189;DHT22;39071;52.420;20.896;2022-09-03T12:17:34;23.60;1.00
21189;DHT22;39071;52.420;20.896;2022-09-03T12:20:12;23.80;1.00
21189;DHT22;39071;52.420;20.896;2022-09-03T12:22:38;23.90;1.00
21189;DHT22;39071;52.420;20.896;2022-09-03T12:25:09;24.00;1.00
21189;DHT22;39071;52.420;20.896;2022-09-03T12:27:36;24.00;1.00
21189;DHT22;39071;52.420;20.896;2022-09-03T12:30:04;23.80;1.00
21189;DHT22;39071;52.420;20.896;2022-09-03T12:32:32;23.70;1.00
21189;DHT22;39071;52.420;20.896;2022-09-03T12:35:16;23.60;1.00
21189;DHT22;39071;52.420;20.896;2022-09-03T12:37:44;23.80;1.00
21189;DHT22;39071;52.420;20.896;2022-09-03T12:40:22;23.70;1.00
21189;DHT22;39071;52.420;20.896;2022-09-03T12:42:49;23.80;1.00
21189;DHT22;39071;52.420;20.896;2022-09-03T12:45:19;23.60;1.00
21189;DHT22;39071;52.420;20.896;2022-09-03T12:47:45;23.50;1.00
21189;DHT22;39071;52.420;20.896;2022-09-03T12:50:16;23.40;1.00
21189;DHT22;39071;52.420;20.896;2022-09-03T12:52:49;23.40;1.00
21189;DHT22;39071;52.420;20.896;2022-09-03T12:57:51;23.80;1.00
21189;DHT22;39071;52.420;20.896;2022-09-03T13:00:19;24.00;1.00
21189;DHT22;39071;52.420;20.896;2022-09-03T13:03:04;24.10;1.00
21189;DHT22;39071;52.420;20.896;2022-09-03T13:05:32;24.20;1.00
21189;DHT22;39071;52.420;20.896;2022-09-03T13:08:01;24.10;1.00
21189;DHT22;39071;52.420;20.896;2022-09-03T13:10:38;23.80;1.00
21189;DHT22;39071;52.420;20.896;2022-09-03T13:13:22;23.70;1.00
21189;DHT22;39071;52.420;20.896;2022-09-03T13:16:08;23.60;1.00
21189;DHT22;39071;52.420;20.896;2022-09-03T13:22:10;22.80;1.00
21189;DHT22;39071;52.420;20.896;2022-09-03T13:25:02;22.60;1.00
21189;DHT22;39071;52.420;20.896;2022-09-03T13:30:36;22.30;1.00
21189;DHT22;39071;52.420;20.896;2022-09-03T13:33:22;22.30;1.00
21189;DHT22;39071;52.420;20.896;2022-09-03T13:36:07;22.30;1.00
21189;DHT22;39071;52.420;20.896;2022-09-03T13:38:57;22.40;1.00
21189;DHT22;39071;52.420;20.896;2022-09-03T13:42:08;22.40;1.00
21189;DHT22;39071;52.420;20.896;2022-09-03T13:44:48;22.50;1.00
21189;DHT22;39071;52.420;20.896;2022-09-03T13:50:00;22.70;1.00
21189;DHT22;39071;52.420;20.896;2022-09-03T13:53:24;22.80;1.00
21189;DHT22;39071;52.420;20.896;2022-09-03T13:56:05;23.00;1.00
21189;DHT22;39071;52.420;20.896;2022-09-03T13:58:47;22.90;1.00
21189;DHT22;39071;52.420;20.896;2022-09-03T14:01:25;22.60;1.00
21189;DHT22;39071;52.420;20.896;2022-09-03T14:03:58;22.70;1.00
21189;DHT22;39071;52.420;20.896;2022-09-03T14:06:53;22.80;1.00
21189;DHT22;39071;52.420;20.896;2022-09-03T14:09:34;22.80;1.00
21189;DHT22;39071;52.420;20.896;2022-09-03T14:14:53;22.80;1.00
21189;DHT22;39071;52.420;20.896;2022-09-03T14:20:02;23.10;1.00
21189;DHT22;39071;52.420;20.896;2022-09-03T14:22:52;23.10;1.00
21189;DHT22;39071;52.420;20.896;2022-09-03T14:25:23;23.20;1.00
21189;DHT22;39071;52.420;20.896;2022-09-03T14:27:49;23.10;1.00
21189;DHT22;39071;52.420;20.896;2022-09-03T14:30:17;23.00;1.00
21189;DHT22;39071;52.420;20.896;2022-09-03T14:32:50;23.00;1.00
21189;DHT22;39071;52.420;20.896;2022-09-03T14:41:46;23.10;1.00
21189;DHT22;39071;52.420;20.896;2022-09-03T15:01:12;22.50;1.00
21189;DHT22;39071;52.420;20.896;2022-09-03T15:06:46;22.70;1.00
21189;DHT22;39071;52.420;20.896;2022-09-03T15:09:31;22.70;1.00
21189;DHT22;39071;52.420;20.896;2022-09-03T15:14:38;22.60;1.00
21189;DHT22;39071;52.420;20.896;2022-09-03T15:20:07;22.50;1.00
21189;DHT22;39071;52.420;20.896;2022-09-03T15:34:00;22.10;1.00
21189;DHT22;39071;52.420;20.896;2022-09-03T15:36:45;22.00;1.00
21189;DHT22;39071;52.420;20.896;2022-09-03T15:39:30;22.00;1.00
21189;DHT22;39071;52.420;20.896;2022-09-03T15:42:06;22.10;1.00
21189;DHT22;39071;52.420;20.896;2022-09-03T15:44:45;22.10;1.00
21189;DHT22;39071;52.420;20.896;2022-09-03T15:50:22;21.90;1.00
21189;DHT22;39071;52.420;20.896;2022-09-03T15:53:01;21.90;1.00
21189;DHT22;39071;52.420;20.896;2022-09-03T15:55:36;21.60;1.00
21189;DHT22;39071;52.420;20.896;2022-09-03T16:01:25;21.50;1.00
21189;DHT22;39071;52.420;20.896;2022-09-03T16:06:35;21.30;1.00
21189;DHT22;39071;52.420;20.896;2022-09-03T16:12:05;21.20;1.00
21189;DHT22;39071;52.420;20.896;2022-09-03T16:14:36;21.20;1.00
21189;DHT22;39071;52.420;20.896;2022-09-03T16:25:51;21.20;1.00
21189;DHT22;39071;52.420;20.896;2022-09-03T16:28:31;21.00;1.00
21189;DHT22;39071;52.420;20.896;2022-09-03T16:44:58;20.60;1.00
21189;DHT22;39071;52.420;20.896;2022-09-03T16:50:14;20.50;1.00
21189;DHT22;39071;52.420;20.896;2022-09-03T16:56:09;20.40;1.00
21189;DHT22;39071;52.420;20.896;2022-09-03T17:07:25;19.70;1.00
21189;DHT22;39071;52.420;20.896;2022-09-03T17:23:10;18.40;1.00
21189;DHT22;39071;52.420;20.896;2022-09-03T17:31:54;17.90;1.00
21189;DHT22;39071;52.420;20.896;2022-09-03T17:42:50;17.10;1.00
21189;DHT22;39071;52.420;20.896;2022-09-03T17:45:40;17.00;1.00
21189;DHT22;39071;52.420;20.896;2022-09-03T17:53:37;16.60;1.00
21189;DHT22;39071;52.420;20.896;2022-09-03T17:56:10;16.50;1.00
21189;DHT22;39071;52.420;20.896;2022-09-03T17:58:50;16.30;1.00
21189;DHT22;39071;52.420;20.896;2022-09-03T18:01:24;16.20;1.00
21189;DHT22;39071;52.420;20.896;2022-09-03T18:06:57;16.00;1.00
21189;DHT22;39071;52.420;20.896;2022-09-03T18:15:30;15.40;1.00
21189;DHT22;39071;52.420;20.896;2022-09-03T18:18:00;15.30;1.00
21189;DHT22;39071;52.420;20.896;2022-09-03T18:20:39;15.20;1.00
21189;DHT22;39071;52.420;20.896;2022-09-03T18:30:05;15.00;1.00
21189;DHT22;39071;52.420;20.896;2022-09-03T18:32:50;14.80;1.00
21189;DHT22;39071;52.420;20.896;2022-09-03T18:35:34;14.70;1.00
21189;DHT22;39071;52.420;20.896;2022-09-03T18:38:31;14.70;1.00
21189;DHT22;39071;52.420;20.896;2022-09-03T18:45:01;14.50;1.00
21189;DHT22;39071;52.420;20.896;2022-09-03T18:47:58;14.30;1.00
21189;DHT22;39071;52.420;20.896;2022-09-03T18:57:10;14.00;1.00
21189;DHT22;39071;52.420;20.896;2022-09-03T19:00:06;13.90;1.00
21189;DHT22;39071;52.420;20.896;2022-09-03T19:20:37;13.30;1.00
21189;DHT22;39071;52.420;20.896;2022-09-03T19:23:24;13.30;1.00
21189;DHT22;39071;52.420;20.896;2022-09-03T19:33:04;13.00;1.00
21189;DHT22;39071;52.420;20.896;2022-09-03T19:39:03;12.80;1.00
21189;DHT22;39071;52.420;20.896;2022-09-03T19:45:17;12.80;1.00
21189;DHT22;39071;52.420;20.896;2022-09-03T19:50:44;12.70;1.00
21189;DHT22;39071;52.420;20.896;2022-09-03T19:53:34;12.60;1.00
21189;DHT22;39071;52.420;20.896;2022-09-03T19:56:26;12.60;1.00
21189;DHT22;39071;52.420;20.896;2022-09-03T19:59:15;12.50;1.00
21189;DHT22;39071;52.420;20.896;2022-09-03T20:02:01;12.30;1.00
21189;DHT22;39071;52.420;20.896;2022-09-03T20:04:57;12.30;1.00
21189;DHT22;39071;52.420;20.896;2022-09-03T20:07:43;12.20;1.00
21189;DHT22;39071;52.420;20.896;2022-09-03T20:10:27;12.10;1.00
21189;DHT22;39071;52.420;20.896;2022-09-03T20:13:13;11.90;1.00
21189;DHT22;39071;52.420;20.896;2022-09-03T20:29:25;11.60;1.00
21189;DHT22;39071;52.420;20.896;2022-09-03T20:32:15;11.50;1.00
21189;DHT22;39071;52.420;20.896;2022-09-03T20:37:37;11.40;1.00
21189;DHT22;39071;52.420;20.896;2022-09-03T20:40:22;11.30;1.00
21189;DHT22;39071;52.420;20.896;2022-09-03T20:48:10;11.30;1.00
21189;DHT22;39071;52.420;20.896;2022-09-03T20:56:14;11.30;91.40
21189;DHT22;39071;52.420;20.896;2022-09-03T21:10:28;11.30;99.90
21189;DHT22;39071;52.420;20.896;2022-09-03T21:13:09;11.30;99.90
21189;DHT22;39071;52.420;20.896;2022-09-03T21:21:16;11.10;99.90
21189;DHT22;39071;52.420;20.896;2022-09-03T21:24:10;11.10;99.90
21189;DHT22;39071;52.420;20.896;2022-09-03T21:26:40;11.00;99.90
21189;DHT22;39071;52.420;20.896;2022-09-03T21:29:12;11.00;99.90
21189;DHT22;39071;52.420;20.896;2022-09-03T21:31:53;11.00;99.90
21189;DHT22;39071;52.420;20.896;2022-09-03T21:36:55;11.00;99.90
21189;DHT22;39071;52.420;20.896;2022-09-03T21:39:33;11.00;99.90
21189;DHT22;39071;52.420;20.896;2022-09-03T21:42:09;11.00;99.90
21189;DHT22;39071;52.420;20.896;2022-09-03T21:47:13;11.00;99.90
21189;DHT22;39071;52.420;20.896;2022-09-03T22:01:13;11.20;99.90
21189;DHT22;39071;52.420;20.896;2022-09-03T22:03:40;11.20;99.90
21189;DHT22;39071;52.420;20.896;2022-09-03T22:06:14;11.20;99.90
21189;DHT22;39071;52.420;20.896;2022-09-03T22:08:48;11.30;99.90
21189;DHT22;39071;52.420;20.896;2022-09-03T22:11:28;11.20;99.90
21189;DHT22;39071;52.420;20.896;2022-09-03T22:14:09;11.20;99.90
21189;DHT22;39071;52.420;20.896;2022-09-03T22:19:10;11.20;99.90
21189;DHT22;39071;52.420;20.896;2022-09-03T22:21:56;11.20;99.90
21189;DHT22;39071;52.420;20.896;2022-09-03T22:27:29;11.20;99.90
21189;DHT22;39071;52.420;20.896;2022-09-03T22:30:06;11.30;99.90
21189;DHT22;39071;52.420;20.896;2022-09-03T22:40:40;11.10;99.90
21189;DHT22;39071;52.420;20.896;2022-09-03T22:46:14;11.00;99.90
21189;DHT22;39071;52.420;20.896;2022-09-03T22:49:09;11.10;99.90
21189;DHT22;39071;52.420;20.896;2022-09-03T22:52:14;11.10;99.90
21189;DHT22;39071;52.420;20.896;2022-09-03T22:57:14;11.00;99.90